sensor_id;sensor_type;location;lat;lon;timestamp;P1;durP1;ratioP1;P2;durP2;ratioP2
71626;SDS011;59475;52.464;13.590;2024-01-11T00:01:58;73.50;;;33.77;;
71626;SDS011;59475;52.464;13.590;2024-01-11T00:04:23;72.43;;;33.20;;
71626;SDS011;59475;52.464;13.590;2024-01-11T00:06:49;73.63;;;34.20;;
71626;SDS011;59475;52.464;13.590;2024-01-11T00:09:15;64.70;;;29.75;;
71626;SDS011;59475;52.464;13.590;2024-01-11T00:11:41;69.63;;;33.13;;
71626;SDS011;59475;52.464;13.590;2024-01-11T00:14:06;64.03;;;29.95;;
71626;SDS011;59475;52.464;13.590;2024-01-11T00:16:32;57.30;;;28.50;;
71626;SDS011;59475;52.464;13.590;2024-01-11T00:18:57;61.37;;;29.90;;
71626;SDS011;59475;52.464;13.590;2024-01-11T00:21:23;65.85;;;29.92;;
71626;SDS011;59475;52.464;13.590;2024-01-11T00:23:50;63.55;;;29.48;;
71626;SDS011;59475;52.464;13.590;2024-01-11T00:26:16;65.32;;;30.27;;
71626;SDS011;59475;52.464;13.590;2024-01-11T00:28:41;62.17;;;29.38;;
71626;SDS011;59475;52.464;13.590;2024-01-11T00:31:06;58.43;;;27.77;;
71626;SDS011;59475;52.464;13.590;2024-01-11T00:33:32;58.47;;;27.20;;
71626;SDS011;59475;52.464;13.590;2024-01-11T00:35:58;50.13;;;24.53;;
71626;SDS011;59475;52.464;13.590;2024-01-11T00:38:23;55.15;;;24.27;;
71626;SDS011;59475;52.464;13.590;2024-01-11T00:40:49;52.27;;;21.80;;
71626;SDS011;59475;52.464;13.590;2024-01-11T00:43:14;48.67;;;23.50;;
71626;SDS011;59475;52.464;13.590;2024-01-11T00:45:40;45.67;;;21.83;;
71626;SDS011;59475;52.464;13.590;2024-01-11T00:48:05;41.53;;;19.20;;
71626;SDS011;59475;52.464;13.590;2024-01-11T00:50:31;40.03;;;18.43;;
71626;SDS011;59475;52.464;13.590;2024-01-11T00:52:56;34.97;;;17.38;;
71626;SDS011;59475;52.464;13.590;2024-01-11T00:55:22;32.63;;;16.37;;
71626;SDS011;59475;52.464;13.590;2024-01-11T00:57:47;35.77;;;15.40;;
71626;SDS011;59475;52.464;13.590;2024-01-11T01:00:13;37.03;;;16.43;;
71626;SDS011;59475;52.464;13.590;2024-01-11T01:02:41;39.55;;;17.83;;
71626;SDS011;59475;52.464;13.590;2024-01-11T01:05:07;34.15;;;16.30;;
71626;SDS011;59475;52.464;13.590;2024-01-11T01:07:33;31.45;;;13.50;;
71626;SDS011;59475;52.464;13.590;2024-01-11T01:09:58;31.02;;;16.65;;
71626;SDS011;59475;52.464;13.590;2024-01-11T01:12:24;17.47;;;10.30;;
71626;SDS011;59475;52.464;13.590;2024-01-11T01:14:52;16.45;;;9.98;;
71626;SDS011;59475;52.464;13.590;2024-01-11T01:17:17;22.83;;;12.67;;
71626;SDS011;59475;52.464;13.590;2024-01-11T01:19:43;22.40;;;12.13;;
71626;SDS011;59475;52.464;13.590;2024-01-11T01:22:09;24.17;;;11.38;;
71626;SDS011;59475;52.464;13.590;2024-01-11T01:24:35;29.33;;;13.47;;
71626;SDS011;59475;52.464;13.590;2024-01-11T01:27:01;20.92;;;12.45;;
71626;SDS011;59475;52.464;13.590;2024-01-11T01:29:26;28.13;;;13.33;;
71626;SDS011;59475;52.464;13.590;2024-01-11T01:31:52;26.90;;;13.52;;
71626;SDS011;59475;52.464;13.590;2024-01-11T01:34:18;24.13;;;13.38;;
71626;SDS011;59475;52.464;13.590;2024-01-11T01:36:44;27.15;;;13.18;;
71626;SDS011;59475;52.464;13.590;2024-01-11T01:39:09;21.07;;;10.67;;
71626;SDS011;59475;52.464;13.590;2024-01-11T01:41:34;25.43;;;13.43;;
71626;SDS011;59475;52.464;13.590;2024-01-11T01:44:00;33.67;;;14.00;;
71626;SDS011;59475;52.464;13.590;2024-01-11T01:46:25;28.63;;;14.00;;
71626;SDS011;59475;52.464;13.590;2024-01-11T01:48:51;31.77;;;13.32;;
71626;SDS011;59475;52.464;13.590;2024-01-11T01:51:18;22.23;;;11.48;;
71626;SDS011;59475;52.464;13.590;2024-01-11T01:53:44;25.25;;;13.57;;
71626;SDS011;59475;52.464;13.590;2024-01-11T01:56:10;20.02;;;10.93;;
71626;SDS011;59475;52.464;13.590;2024-01-11T01:58:36;23.85;;;11.93;;
71626;SDS011;59475;52.464;13.590;2024-01-11T02:01:02;23.80;;;13.53;;
71626;SDS011;59475;52.464;13.590;2024-01-11T02:03:28;27.33;;;12.18;;
71626;SDS011;59475;52.464;13.590;2024-01-11T02:05:54;20.15;;;10.88;;
71626;SDS011;59475;52.464;13.590;2024-01-11T02:08:21;27.90;;;9.97;;
71626;SDS011;59475;52.464;13.590;2024-01-11T02:10:48;21.92;;;11.30;;
71626;SDS011;59475;52.464;13.590;2024-01-11T02:13:13;19.03;;;9.07;;
71626;SDS011;59475;52.464;13.590;2024-01-11T02:15:39;12.27;;;7.40;;
71626;SDS011;59475;52.464;13.590;2024-01-11T02:18:05;12.17;;;5.70;;
71626;SDS011;59475;52.464;13.590;2024-01-11T02:20:31;16.50;;;7.60;;
71626;SDS011;59475;52.464;13.590;2024-01-11T02:22:58;15.17;;;7.33;;
71626;SDS011;59475;52.464;13.590;2024-01-11T02:25:28;18.90;;;8.07;;
71626;SDS011;59475;52.464;13.590;2024-01-11T02:27:54;15.40;;;6.57;;
71626;SDS011;59475;52.464;13.590;2024-01-11T02:30:19;16.83;;;7.05;;
71626;SDS011;59475;52.464;13.590;2024-01-11T02:32:48;13.50;;;6.03;;
71626;SDS011;59475;52.464;13.590;2024-01-11T02:35:17;12.55;;;6.60;;
71626;SDS011;59475;52.464;13.590;2024-01-11T02:37:43;11.00;;;6.38;;
71626;SDS011;59475;52.464;13.590;2024-01-11T02:40:10;12.73;;;6.25;;
71626;SDS011;59475;52.464;13.590;2024-01-11T02:42:37;7.78;;;4.90;;
71626;SDS011;59475;52.464;13.590;2024-01-11T02:45:03;16.00;;;6.93;;
71626;SDS011;59475;52.464;13.590;2024-01-11T02:47:29;12.35;;;6.45;;
71626;SDS011;59475;52.464;13.590;2024-01-11T02:49:55;10.70;;;5.72;;
71626;SDS011;59475;52.464;13.590;2024-01-11T02:52:22;13.98;;;6.43;;
71626;SDS011;59475;52.464;13.590;2024-01-11T02:54:47;13.65;;;5.95;;
71626;SDS011;59475;52.464;13.590;2024-01-11T02:57:13;10.33;;;5.97;;
71626;SDS011;59475;52.464;13.590;2024-01-11T02:59:39;12.67;;;6.23;;
71626;SDS011;59475;52.464;13.590;2024-01-11T03:02:05;16.60;;;6.45;;
71626;SDS011;59475;52.464;13.590;2024-01-11T03:04:30;13.07;;;6.87;;
71626;SDS011;59475;52.464;13.590;2024-01-11T03:06:55;16.00;;;6.63;;
71626;SDS011;59475;52.464;13.590;2024-01-11T03:09:21;11.95;;;6.85;;
71626;SDS011;59475;52.464;13.590;2024-01-11T03:11:46;9.33;;;5.20;;
71626;SDS011;59475;52.464;13.590;2024-01-11T03:14:11;12.47;;;6.93;;
71626;SDS011;59475;52.464;13.590;2024-01-11T03:16:37;15.60;;;7.07;;
71626;SDS011;59475;52.464;13.590;2024-01-11T03:19:04;13.13;;;6.28;;
71626;SDS011;59475;52.464;13.590;2024-01-11T03:21:30;11.15;;;5.65;;
71626;SDS011;59475;52.464;13.590;2024-01-11T03:23:55;18.33;;;6.53;;
71626;SDS011;59475;52.464;13.590;2024-01-11T03:26:21;10.67;;;5.47;;
71626;SDS011;59475;52.464;13.590;2024-01-11T03:28:46;16.73;;;5.77;;
71626;SDS011;59475;52.464;13.590;2024-01-11T03:31:11;13.40;;;5.73;;
71626;SDS011;59475;52.464;13.590;2024-01-11T03:33:37;16.47;;;6.90;;
71626;SDS011;59475;52.464;13.590;2024-01-11T03:36:09;13.23;;;6.10;;
71626;SDS011;59475;52.464;13.590;2024-01-11T03:38:35;13.20;;;7.20;;
71626;SDS011;59475;52.464;13.590;2024-01-11T03:41:01;15.32;;;6.55;;
71626;SDS011;59475;52.464;13.590;2024-01-11T03:43:27;17.33;;;7.53;;
71626;SDS011;59475;52.464;13.590;2024-01-11T03:45:52;16.93;;;6.77;;
71626;SDS011;59475;52.464;13.590;2024-01-11T03:48:18;11.50;;;5.70;;
71626;SDS011;59475;52.464;13.590;2024-01-11T03:50:44;17.92;;;7.22;;
71626;SDS011;59475;52.464;13.590;2024-01-11T03:53:09;15.50;;;6.53;;
71626;SDS011;59475;52.464;13.590;2024-01-11T03:55:35;15.52;;;6.95;;
71626;SDS011;59475;52.464;13.590;2024-01-11T03:58:00;15.88;;;6.85;;
71626;SDS011;59475;52.464;13.590;2024-01-11T04:00:26;12.57;;;6.70;;
71626;SDS011;59475;52.464;13.590;2024-01-11T04:02:51;13.60;;;7.00;;
71626;SDS011;59475;52.464;13.590;2024-01-11T04:05:17;14.20;;;5.40;;
71626;SDS011;59475;52.464;13.590;2024-01-11T04:07:42;15.07;;;7.13;;
71626;SDS011;59475;52.464;13.590;2024-01-11T04:10:08;17.80;;;6.40;;
71626;SDS011;59475;52.464;13.590;2024-01-11T04:12:35;15.82;;;7.05;;
71626;SDS011;59475;52.464;13.590;2024-01-11T04:15:01;19.20;;;7.63;;
71626;SDS011;59475;52.464;13.590;2024-01-11T04:17:27;15.57;;;8.25;;
71626;SDS011;59475;52.464;13.590;2024-01-11T04:19:52;18.17;;;7.63;;
71626;SDS011;59475;52.464;13.590;2024-01-11T04:22:18;13.57;;;6.97;;
71626;SDS011;59475;52.464;13.590;2024-01-11T04:24:43;18.87;;;7.73;;
71626;SDS011;59475;52.464;13.590;2024-01-11T04:27:08;17.13;;;7.45;;
71626;SDS011;59475;52.464;13.590;2024-01-11T04:29:34;17.37;;;7.50;;
71626;SDS011;59475;52.464;13.590;2024-01-11T04:31:59;16.73;;;7.83;;
71626;SDS011;59475;52.464;13.590;2024-01-11T04:34:25;17.13;;;6.90;;
71626;SDS011;59475;52.464;13.590;2024-01-11T04:36:50;16.33;;;7.88;;
71626;SDS011;59475;52.464;13.590;2024-01-11T04:39:15;14.70;;;7.63;;
71626;SDS011;59475;52.464;13.590;2024-01-11T04:41:41;17.60;;;6.77;;
71626;SDS011;59475;52.464;13.590;2024-01-11T04:44:06;18.77;;;7.77;;
71626;SDS011;59475;52.464;13.590;2024-01-11T04:46:31;19.97;;;7.27;;
71626;SDS011;59475;52.464;13.590;2024-01-11T04:48:57;17.87;;;7.57;;
71626;SDS011;59475;52.464;13.590;2024-01-11T04:51:22;14.85;;;7.05;;
71626;SDS011;59475;52.464;13.590;2024-01-11T04:53:48;16.67;;;7.13;;
71626;SDS011;59475;52.464;13.590;2024-01-11T04:56:14;20.93;;;8.00;;
71626;SDS011;59475;52.464;13.590;2024-01-11T04:58:41;18.98;;;7.75;;
71626;SDS011;59475;52.464;13.590;2024-01-11T05:01:16;15.45;;;6.35;;
71626;SDS011;59475;52.464;13.590;2024-01-11T05:03:43;22.27;;;8.00;;
71626;SDS011;59475;52.464;13.590;2024-01-11T05:06:14;20.95;;;7.43;;
71626;SDS011;59475;52.464;13.590;2024-01-11T05:08:41;19.75;;;6.90;;
71626;SDS011;59475;52.464;13.590;2024-01-11T05:11:06;18.13;;;6.83;;
71626;SDS011;59475;52.464;13.590;2024-01-11T05:13:32;16.20;;;7.07;;
71626;SDS011;59475;52.464;13.590;2024-01-11T05:15:57;14.67;;;4.87;;
71626;SDS011;59475;52.464;13.590;2024-01-11T05:18:23;13.17;;;6.27;;
71626;SDS011;59475;52.464;13.590;2024-01-11T05:20:48;17.23;;;6.60;;
71626;SDS011;59475;52.464;13.590;2024-01-11T05:23:13;17.00;;;6.03;;
71626;SDS011;59475;52.464;13.590;2024-01-11T05:25:39;16.07;;;7.40;;
71626;SDS011;59475;52.464;13.590;2024-01-11T05:28:04;24.10;;;8.37;;
71626;SDS011;59475;52.464;13.590;2024-01-11T05:30:30;18.63;;;7.07;;
71626;SDS011;59475;52.464;13.590;2024-01-11T05:32:55;22.87;;;7.40;;
71626;SDS011;59475;52.464;13.590;2024-01-11T05:35:21;22.27;;;6.70;;
71626;SDS011;59475;52.464;13.590;2024-01-11T05:37:49;20.23;;;8.30;;
71626;SDS011;59475;52.464;13.590;2024-01-11T05:40:15;26.25;;;8.18;;
71626;SDS011;59475;52.464;13.590;2024-01-11T05:42:40;25.70;;;8.70;;
71626;SDS011;59475;52.464;13.590;2024-01-11T05:45:05;19.07;;;8.07;;
71626;SDS011;59475;52.464;13.590;2024-01-11T05:47:31;29.00;;;9.35;;
71626;SDS011;59475;52.464;13.590;2024-01-11T05:49:57;25.70;;;8.43;;
71626;SDS011;59475;52.464;13.590;2024-01-11T05:52:22;24.55;;;8.95;;
71626;SDS011;59475;52.464;13.590;2024-01-11T05:54:47;26.03;;;8.47;;
71626;SDS011;59475;52.464;13.590;2024-01-11T05:57:13;27.27;;;8.80;;
71626;SDS011;59475;52.464;13.590;2024-01-11T05:59:43;33.77;;;9.23;;
71626;SDS011;59475;52.464;13.590;2024-01-11T06:02:08;31.95;;;10.00;;
71626;SDS011;59475;52.464;13.590;2024-01-11T06:04:34;28.80;;;9.93;;
71626;SDS011;59475;52.464;13.590;2024-01-11T06:06:59;27.10;;;9.13;;
71626;SDS011;59475;52.464;13.590;2024-01-11T06:09:24;28.00;;;8.63;;
71626;SDS011;59475;52.464;13.590;2024-01-11T06:11:50;27.43;;;8.77;;
71626;SDS011;59475;52.464;13.590;2024-01-11T06:14:15;31.83;;;9.57;;
71626;SDS011;59475;52.464;13.590;2024-01-11T06:16:41;35.80;;;10.85;;
71626;SDS011;59475;52.464;13.590;2024-01-11T06:19:07;29.15;;;9.20;;
71626;SDS011;59475;52.464;13.590;2024-01-11T06:21:33;26.80;;;10.38;;
71626;SDS011;59475;52.464;13.590;2024-01-11T06:23:59;25.67;;;10.10;;
71626;SDS011;59475;52.464;13.590;2024-01-11T06:26:24;30.17;;;11.17;;
71626;SDS011;59475;52.464;13.590;2024-01-11T06:28:49;32.40;;;12.50;;
71626;SDS011;59475;52.464;13.590;2024-01-11T06:31:15;32.53;;;10.97;;
71626;SDS011;59475;52.464;13.590;2024-01-11T06:33:40;28.83;;;9.37;;
71626;SDS011;59475;52.464;13.590;2024-01-11T06:36:05;29.83;;;10.47;;
71626;SDS011;59475;52.464;13.590;2024-01-11T06:38:32;24.23;;;8.35;;
71626;SDS011;59475;52.464;13.590;2024-01-11T06:40:57;33.73;;;10.70;;
71626;SDS011;59475;52.464;13.590;2024-01-11T06:43:23;32.90;;;10.20;;
71626;SDS011;59475;52.464;13.590;2024-01-11T06:45:48;33.13;;;10.37;;
71626;SDS011;59475;52.464;13.590;2024-01-11T06:48:13;26.10;;;8.60;;
71626;SDS011;59475;52.464;13.590;2024-01-11T06:50:39;24.60;;;8.50;;
71626;SDS011;59475;52.464;13.590;2024-01-11T06:53:04;26.40;;;10.43;;
71626;SDS011;59475;52.464;13.590;2024-01-11T06:55:29;31.77;;;9.47;;
71626;SDS011;59475;52.464;13.590;2024-01-11T06:57:55;41.70;;;9.80;;
71626;SDS011;59475;52.464;13.590;2024-01-11T07:00:20;28.98;;;9.45;;
71626;SDS011;59475;52.464;13.590;2024-01-11T07:02:46;26.60;;;7.80;;
71626;SDS011;59475;52.464;13.590;2024-01-11T07:05:12;29.20;;;8.75;;
71626;SDS011;59475;52.464;13.590;2024-01-11T07:07:37;29.70;;;10.03;;
71626;SDS011;59475;52.464;13.590;2024-01-11T07:10:03;25.57;;;9.50;;
71626;SDS011;59475;52.464;13.590;2024-01-11T07:12:30;34.42;;;10.57;;
71626;SDS011;59475;52.464;13.590;2024-01-11T07:14:56;28.87;;;9.83;;
71626;SDS011;59475;52.464;13.590;2024-01-11T07:17:21;34.53;;;10.48;;
71626;SDS011;59475;52.464;13.590;2024-01-11T07:19:47;32.58;;;9.77;;
71626;SDS011;59475;52.464;13.590;2024-01-11T07:22:13;30.75;;;9.98;;
71626;SDS011;59475;52.464;13.590;2024-01-11T07:24:38;27.93;;;8.90;;
71626;SDS011;59475;52.464;13.590;2024-01-11T07:27:07;32.77;;;10.13;;
71626;SDS011;59475;52.464;13.590;2024-01-11T07:29:33;31.73;;;9.85;;
71626;SDS011;59475;52.464;13.590;2024-01-11T07:31:58;31.47;;;10.43;;
71626;SDS011;59475;52.464;13.590;2024-01-11T07:34:24;36.63;;;10.57;;
71626;SDS011;59475;52.464;13.590;2024-01-11T07:36:51;30.05;;;9.98;;
71626;SDS011;59475;52.464;13.590;2024-01-11T07:39:17;33.23;;;10.17;;
71626;SDS011;59475;52.464;13.590;2024-01-11T07:41:42;24.88;;;8.90;;
71626;SDS011;59475;52.464;13.590;2024-01-11T07:44:08;24.13;;;8.48;;
71626;SDS011;59475;52.464;13.590;2024-01-11T07:46:33;24.37;;;10.07;;
71626;SDS011;59475;52.464;13.590;2024-01-11T07:48:59;31.63;;;9.80;;
71626;SDS011;59475;52.464;13.590;2024-01-11T07:51:24;35.87;;;9.70;;
71626;SDS011;59475;52.464;13.590;2024-01-11T07:53:50;26.58;;;11.02;;
71626;SDS011;59475;52.464;13.590;2024-01-11T07:56:15;25.40;;;9.90;;
71626;SDS011;59475;52.464;13.590;2024-01-11T07:58:42;27.13;;;9.55;;
71626;SDS011;59475;52.464;13.590;2024-01-11T08:01:07;30.83;;;10.00;;
71626;SDS011;59475;52.464;13.590;2024-01-11T08:03:33;32.75;;;10.93;;
71626;SDS011;59475;52.464;13.590;2024-01-11T08:06:00;30.85;;;10.32;;
71626;SDS011;59475;52.464;13.590;2024-01-11T08:08:25;24.02;;;9.40;;
71626;SDS011;59475;52.464;13.590;2024-01-11T08:10:51;31.07;;;9.93;;
71626;SDS011;59475;52.464;13.590;2024-01-11T08:13:16;32.60;;;9.48;;
71626;SDS011;59475;52.464;13.590;2024-01-11T08:15:42;32.47;;;9.98;;
71626;SDS011;59475;52.464;13.590;2024-01-11T08:18:08;25.17;;;10.20;;
71626;SDS011;59475;52.464;13.590;2024-01-11T08:20:34;31.03;;;9.27;;
71626;SDS011;59475;52.464;13.590;2024-01-11T08:22:59;28.40;;;10.00;;
71626;SDS011;59475;52.464;13.590;2024-01-11T08:25:25;32.20;;;10.63;;
71626;SDS011;59475;52.464;13.590;2024-01-11T08:27:50;29.63;;;9.97;;
71626;SDS011;59475;52.464;13.590;2024-01-11T08:30:15;33.87;;;11.37;;
71626;SDS011;59475;52.464;13.590;2024-01-11T08:32:41;26.67;;;9.53;;
71626;SDS011;59475;52.464;13.590;2024-01-11T08:35:08;27.23;;;9.68;;
71626;SDS011;59475;52.464;13.590;2024-01-11T08:37:36;28.20;;;10.13;;
71626;SDS011;59475;52.464;13.590;2024-01-11T08:40:02;23.87;;;8.87;;
71626;SDS011;59475;52.464;13.590;2024-01-11T08:42:29;25.23;;;9.60;;
71626;SDS011;59475;52.464;13.590;2024-01-11T08:44:55;28.40;;;9.43;;
71626;SDS011;59475;52.464;13.590;2024-01-11T08:47:21;26.27;;;9.83;;
71626;SDS011;59475;52.464;13.590;2024-01-11T08:49:46;26.17;;;9.50;;
71626;SDS011;59475;52.464;13.590;2024-01-11T08:52:12;27.05;;;9.18;;
71626;SDS011;59475;52.464;13.590;2024-01-11T08:54:37;27.83;;;9.70;;
71626;SDS011;59475;52.464;13.590;2024-01-11T08:57:02;27.63;;;9.90;;
71626;SDS011;59475;52.464;13.590;2024-01-11T08:59:28;27.63;;;10.40;;
71626;SDS011;59475;52.464;13.590;2024-01-11T09:01:53;30.87;;;10.27;;
71626;SDS011;59475;52.464;13.590;2024-01-11T09:04:19;27.30;;;9.15;;
71626;SDS011;59475;52.464;13.590;2024-01-11T09:06:45;26.67;;;10.07;;
71626;SDS011;59475;52.464;13.590;2024-01-11T09:09:10;23.63;;;8.48;;
71626;SDS011;59475;52.464;13.590;2024-01-11T09:11:38;28.60;;;9.55;;
71626;SDS011;59475;52.464;13.590;2024-01-11T09:14:05;29.35;;;10.43;;
71626;SDS011;59475;52.464;13.590;2024-01-11T09:16:31;32.80;;;10.88;;
71626;SDS011;59475;52.464;13.590;2024-01-11T09:18:57;31.50;;;9.68;;
71626;SDS011;59475;52.464;13.590;2024-01-11T09:21:25;26.73;;;10.10;;
71626;SDS011;59475;52.464;13.590;2024-01-11T09:23:50;29.33;;;11.07;;
71626;SDS011;59475;52.464;13.590;2024-01-11T09:26:16;32.93;;;9.87;;
71626;SDS011;59475;52.464;13.590;2024-01-11T09:28:41;35.07;;;11.57;;
71626;SDS011;59475;52.464;13.590;2024-01-11T09:31:06;34.67;;;12.00;;
71626;SDS011;59475;52.464;13.590;2024-01-11T09:33:32;32.50;;;11.10;;
71626;SDS011;59475;52.464;13.590;2024-01-11T09:35:57;31.77;;;10.88;;
71626;SDS011;59475;52.464;13.590;2024-01-11T09:38:22;29.83;;;11.10;;
71626;SDS011;59475;52.464;13.590;2024-01-11T09:40:54;30.60;;;11.23;;
71626;SDS011;59475;52.464;13.590;2024-01-11T09:43:28;28.05;;;10.18;;
71626;SDS011;59475;52.464;13.590;2024-01-11T09:45:55;28.30;;;9.90;;
71626;SDS011;59475;52.464;13.590;2024-01-11T09:48:21;29.88;;;11.40;;
71626;SDS011;59475;52.464;13.590;2024-01-11T09:50:49;28.75;;;11.25;;
71626;SDS011;59475;52.464;13.590;2024-01-11T09:53:16;27.65;;;10.95;;
71626;SDS011;59475;52.464;13.590;2024-01-11T09:55:45;34.08;;;11.43;;
71626;SDS011;59475;52.464;13.590;2024-01-11T09:58:12;34.53;;;11.20;;
71626;SDS011;59475;52.464;13.590;2024-01-11T10:00:39;37.58;;;11.73;;
71626;SDS011;59475;52.464;13.590;2024-01-11T10:03:05;30.25;;;11.35;;
71626;SDS011;59475;52.464;13.590;2024-01-11T10:05:31;32.47;;;11.10;;
71626;SDS011;59475;52.464;13.590;2024-01-11T10:07:59;36.30;;;12.95;;
71626;SDS011;59475;52.464;13.590;2024-01-11T10:10:24;31.40;;;10.97;;
71626;SDS011;59475;52.464;13.590;2024-01-11T10:12:50;26.77;;;10.35;;
71626;SDS011;59475;52.464;13.590;2024-01-11T10:15:16;26.63;;;9.23;;
71626;SDS011;59475;52.464;13.590;2024-01-11T10:17:42;35.70;;;12.27;;
71626;SDS011;59475;52.464;13.590;2024-01-11T10:20:09;31.07;;;11.50;;
71626;SDS011;59475;52.464;13.590;2024-01-11T10:22:42;33.22;;;11.98;;
71626;SDS011;59475;52.464;13.590;2024-01-11T10:25:11;29.38;;;12.07;;
71626;SDS011;59475;52.464;13.590;2024-01-11T10:27:39;31.70;;;12.20;;
71626;SDS011;59475;52.464;13.590;2024-01-11T10:30:07;30.38;;;11.18;;
71626;SDS011;59475;52.464;13.590;2024-01-11T10:32:33;30.23;;;11.00;;
71626;SDS011;59475;52.464;13.590;2024-01-11T10:34:59;24.48;;;9.43;;
71626;SDS011;59475;52.464;13.590;2024-01-11T10:37:26;32.85;;;11.77;;
71626;SDS011;59475;52.464;13.590;2024-01-11T10:39:53;30.40;;;13.52;;
71626;SDS011;59475;52.464;13.590;2024-01-11T10:42:23;24.53;;;9.47;;
71626;SDS011;59475;52.464;13.590;2024-01-11T10:44:49;37.30;;;12.65;;
71626;SDS011;59475;52.464;13.590;2024-01-11T10:47:20;30.70;;;11.70;;
71626;SDS011;59475;52.464;13.590;2024-01-11T10:49:49;19.23;;;9.05;;
71626;SDS011;59475;52.464;13.590;2024-01-11T10:52:17;32.03;;;11.65;;
71626;SDS011;59475;52.464;13.590;2024-01-11T10:54:47;35.20;;;12.47;;
71626;SDS011;59475;52.464;13.590;2024-01-11T10:57:14;28.85;;;11.95;;
71626;SDS011;59475;52.464;13.590;2024-01-11T10:59:41;27.10;;;10.30;;
71626;SDS011;59475;52.464;13.590;2024-01-11T11:02:08;22.75;;;9.10;;
71626;SDS011;59475;52.464;13.590;2024-01-11T11:04:38;29.75;;;11.40;;
71626;SDS011;59475;52.464;13.590;2024-01-11T11:07:05;31.63;;;11.27;;
71626;SDS011;59475;52.464;13.590;2024-01-11T11:09:34;31.00;;;11.98;;
71626;SDS011;59475;52.464;13.590;2024-01-11T11:12:00;35.83;;;12.05;;
71626;SDS011;59475;52.464;13.590;2024-01-11T11:14:26;36.90;;;12.83;;
71626;SDS011;59475;52.464;13.590;2024-01-11T11:16:53;41.42;;;12.95;;
71626;SDS011;59475;52.464;13.590;2024-01-11T11:19:20;36.55;;;12.32;;
71626;SDS011;59475;52.464;13.590;2024-01-11T11:21:46;32.97;;;11.85;;
71626;SDS011;59475;52.464;13.590;2024-01-11T11:24:13;40.50;;;14.13;;
71626;SDS011;59475;52.464;13.590;2024-01-11T11:26:38;37.53;;;13.80;;
71626;SDS011;59475;52.464;13.590;2024-01-11T11:29:04;43.17;;;13.83;;
71626;SDS011;59475;52.464;13.590;2024-01-11T11:31:34;42.38;;;13.95;;
71626;SDS011;59475;52.464;13.590;2024-01-11T11:34:40;37.15;;;12.57;;
71626;SDS011;59475;52.464;13.590;2024-01-11T11:37:07;39.80;;;14.70;;
71626;SDS011;59475;52.464;13.590;2024-01-11T11:39:34;42.70;;;13.23;;
71626;SDS011;59475;52.464;13.590;2024-01-11T11:41:59;38.70;;;13.23;;
71626;SDS011;59475;52.464;13.590;2024-01-11T11:44:26;38.00;;;14.80;;
71626;SDS011;59475;52.464;13.590;2024-01-11T11:46:51;43.80;;;13.80;;
71626;SDS011;59475;52.464;13.590;2024-01-11T11:49:17;34.13;;;12.57;;
71626;SDS011;59475;52.464;13.590;2024-01-11T11:51:43;39.70;;;13.77;;
71626;SDS011;59475;52.464;13.590;2024-01-11T11:54:08;39.72;;;14.88;;
71626;SDS011;59475;52.464;13.590;2024-01-11T11:56:39;54.60;;;14.65;;
71626;SDS011;59475;52.464;13.590;2024-01-11T11:59:05;44.17;;;14.90;;
71626;SDS011;59475;52.464;13.590;2024-01-11T12:01:31;42.07;;;14.00;;
71626;SDS011;59475;52.464;13.590;2024-01-11T12:03:58;38.85;;;16.38;;
71626;SDS011;59475;52.464;13.590;2024-01-11T12:06:24;40.03;;;14.73;;
71626;SDS011;59475;52.464;13.590;2024-01-11T12:08:49;44.00;;;14.55;;
71626;SDS011;59475;52.464;13.590;2024-01-11T12:11:18;39.70;;;14.47;;
71626;SDS011;59475;52.464;13.590;2024-01-11T12:13:44;44.95;;;15.43;;
71626;SDS011;59475;52.464;13.590;2024-01-11T12:16:11;40.67;;;14.57;;
71626;SDS011;59475;52.464;13.590;2024-01-11T12:18:37;52.72;;;15.80;;
71626;SDS011;59475;52.464;13.590;2024-01-11T12:21:02;39.97;;;13.67;;
71626;SDS011;59475;52.464;13.590;2024-01-11T12:23:28;42.93;;;14.37;;
71626;SDS011;59475;52.464;13.590;2024-01-11T12:25:58;49.70;;;14.30;;
71626;SDS011;59475;52.464;13.590;2024-01-11T12:28:23;38.20;;;13.35;;
71626;SDS011;59475;52.464;13.590;2024-01-11T12:30:49;40.20;;;14.65;;
71626;SDS011;59475;52.464;13.590;2024-01-11T12:33:15;36.77;;;14.13;;
71626;SDS011;59475;52.464;13.590;2024-01-11T12:35:41;36.73;;;13.47;;
71626;SDS011;59475;52.464;13.590;2024-01-11T12:38:06;37.73;;;13.43;;
71626;SDS011;59475;52.464;13.590;2024-01-11T12:40:32;33.47;;;13.47;;
71626;SDS011;59475;52.464;13.590;2024-01-11T12:42:59;37.97;;;13.10;;
71626;SDS011;59475;52.464;13.590;2024-01-11T12:45:25;33.87;;;13.23;;
71626;SDS011;59475;52.464;13.590;2024-01-11T12:47:54;34.17;;;13.57;;
71626;SDS011;59475;52.464;13.590;2024-01-11T12:50:22;31.67;;;11.50;;
71626;SDS011;59475;52.464;13.590;2024-01-11T12:53:03;14.93;;;7.65;;
71626;SDS011;59475;52.464;13.590;2024-01-11T12:55:45;30.42;;;11.73;;
71626;SDS011;59475;52.464;13.590;2024-01-11T12:58:18;26.90;;;11.83;;
71626;SDS011;59475;52.464;13.590;2024-01-11T13:00:45;30.63;;;12.45;;
71626;SDS011;59475;52.464;13.590;2024-01-11T13:03:11;27.97;;;11.90;;
71626;SDS011;59475;52.464;13.590;2024-01-11T13:05:36;34.63;;;12.90;;
71626;SDS011;59475;52.464;13.590;2024-01-11T13:08:02;27.23;;;11.23;;
71626;SDS011;59475;52.464;13.590;2024-01-11T13:10:32;29.23;;;11.77;;
71626;SDS011;59475;52.464;13.590;2024-01-11T13:12:58;32.17;;;11.23;;
71626;SDS011;59475;52.464;13.590;2024-01-11T13:15:23;28.73;;;12.88;;
71626;SDS011;59475;52.464;13.590;2024-01-11T13:17:49;33.20;;;12.17;;
71626;SDS011;59475;52.464;13.590;2024-01-11T13:20:15;28.23;;;12.07;;
71626;SDS011;59475;52.464;13.590;2024-01-11T13:22:40;29.90;;;11.50;;
71626;SDS011;59475;52.464;13.590;2024-01-11T13:25:05;28.20;;;11.97;;
71626;SDS011;59475;52.464;13.590;2024-01-11T13:27:31;32.80;;;12.30;;
71626;SDS011;59475;52.464;13.590;2024-01-11T13:29:57;36.30;;;12.33;;
71626;SDS011;59475;52.464;13.590;2024-01-11T13:32:23;30.40;;;12.00;;
71626;SDS011;59475;52.464;13.590;2024-01-11T13:34:48;23.73;;;10.60;;
71626;SDS011;59475;52.464;13.590;2024-01-11T13:37:14;25.47;;;10.77;;
71626;SDS011;59475;52.464;13.590;2024-01-11T13:39:39;28.97;;;10.60;;
71626;SDS011;59475;52.464;13.590;2024-01-11T13:42:04;28.60;;;11.17;;
71626;SDS011;59475;52.464;13.590;2024-01-11T13:44:34;21.15;;;8.27;;
71626;SDS011;59475;52.464;13.590;2024-01-11T13:46:59;26.77;;;11.30;;
71626;SDS011;59475;52.464;13.590;2024-01-11T13:49:25;28.67;;;9.77;;
71626;SDS011;59475;52.464;13.590;2024-01-11T13:51:50;27.20;;;10.87;;
71626;SDS011;59475;52.464;13.590;2024-01-11T13:54:16;24.80;;;10.97;;
71626;SDS011;59475;52.464;13.590;2024-01-11T13:56:41;27.30;;;11.05;;
71626;SDS011;59475;52.464;13.590;2024-01-11T13:59:07;25.83;;;11.10;;
71626;SDS011;59475;52.464;13.590;2024-01-11T14:01:32;24.43;;;10.67;;
71626;SDS011;59475;52.464;13.590;2024-01-11T14:03:58;28.20;;;11.13;;
71626;SDS011;59475;52.464;13.590;2024-01-11T14:06:23;26.50;;;9.83;;
71626;SDS011;59475;52.464;13.590;2024-01-11T14:08:48;27.65;;;10.80;;